Time;durP1;ratioP1;P1;durP2;ratioP2;P2;SDS_P1;SDS_P2;PMS_P1;PMS_P2;Temp;Humidity;BMP_temperature;BMP_pressure;BME280_temperature;BME280_humidity;BME280_pressure;Samples;Min_cycle;Max_cycle;Signal;HPM_P1;HPM_P2
2020/12/09 00:00:06;;;;;;;;;;;;;;;20.64;35.54;101131.03;5096652;28;827;-47
2020/12/09 00:02:31;;;;;;;;;;;;;;;20.33;36.21;101125.81;5095176;28;922;-47
2020/12/09 00:04:57;;;;;;;;;;;;;;;19.84;37.12;101140.59;5096449;28;784;-50
2020/12/09 00:07:22;;;;;;;;;;;;;;;19.46;38.15;101135.56;5096479;28;740;-56
2020/12/09 00:09:48;;;;;;;;;;;;;;;19.87;37.09;101120.69;5096234;28;1972;-56
2020/12/09 00:12:14;;;;;;;;;;;;;;;20.66;35.74;101128.81;5096467;28;752;-56
2020/12/09 00:14:40;;;;;;;;;;;;;;;20.52;35.97;101133.38;5096454;28;735;-57
2020/12/09 00:17:05;;;;;;;;;;;;;;;20.15;36.49;101132.06;5095061;28;838;-53
2020/12/09 00:19:31;;;;;;;;;;;;;;;19.65;37.59;101121.09;5096326;28;1106;-48
2020/12/09 00:21:56;;;;;;;;;;;;;;;19.52;38.17;101135.50;5100358;28;763;-46
2020/12/09 00:24:22;;;;;;;;;;;;;;;20.52;36.06;101131.44;5100643;28;787;-48
2020/12/09 00:26:47;;;;;;;;;;;;;;;20.51;35.86;101142.78;5100368;28;1094;-57
2020/12/09 00:29:13;;;;;;;;;;;;;;;20.26;36.45;101146.59;5099344;28;752;-56
2020/12/09 00:31:38;;;;;;;;;;;;;;;20.02;37.01;101152.03;5100769;28;1909;-53
2020/12/09 00:34:04;;;;;;;;;;;;;;;19.49;37.78;101156.22;5100472;28;803;-47
2020/12/09 00:36:29;;;;;;;;;;;;;;;20.39;36.31;101162.50;5100390;28;768;-49
2020/12/09 00:38:55;;;;;;;;;;;;;;;20.70;35.49;101167.75;5099191;28;1232;-50
2020/12/09 00:41:21;;;;;;;;;;;;;;;20.35;36.37;101166.94;5100234;28;965;-55
2020/12/09 00:43:47;;;;;;;;;;;;;;;20.06;36.71;101169.66;5098331;28;839;-52
2020/12/09 00:46:16;;;;;;;;;;;;;;;19.73;37.40;101172.91;5099232;28;1220;-54
2020/12/09 00:48:42;;;;;;;;;;;;;;;20.26;36.57;101168.66;5099672;28;1243;-47
2020/12/09 00:51:12;;;;;;;;;;;;;;;20.89;35.26;101164.22;5098554;28;1914;-46
2020/12/09 00:53:38;;;;;;;;;;;;;;;20.38;36.35;101171.88;5098697;28;815;-47
2020/12/09 00:56:05;;;;;;;;;;;;;;;20.08;36.67;101171.03;5098865;28;1117;-49
2020/12/09 00:58:30;;;;;;;;;;;;;;;19.71;37.63;101175.09;5098746;28;1247;-56
2020/12/09 01:00:56;;;;;;;;;;;;;;;20.08;37.02;101168.28;5098990;28;1295;-49
2020/12/09 01:03:24;;;;;;;;;;;;;;;20.78;35.72;101164.34;5098652;28;1188;-55
2020/12/09 01:05:50;;;;;;;;;;;;;;;20.26;36.46;101172.28;5099562;28;807;-57
2020/12/09 01:08:15;;;;;;;;;;;;;;;20.13;36.93;101159.97;5099863;28;755;-53
2020/12/09 01:10:41;;;;;;;;;;;;;;;19.70;37.59;101169.88;5099957;28;1905;-48
2020/12/09 01:13:07;;;;;;;;;;;;;;;20.02;37.08;101174.97;5099483;28;841;-58
2020/12/09 01:15:32;;;;;;;;;;;;;;;20.78;35.67;101164.34;5098500;28;815;-52
2020/12/09 01:17:58;;;;;;;;;;;;;;;21.00;35.10;101168.56;5099656;28;1091;-46
2020/12/09 01:20:23;;;;;;;;;;;;;;;20.47;35.87;101170.16;5097893;28;763;-46
2020/12/09 01:22:49;;;;;;;;;;;;;;;20.21;36.32;101172.31;5098021;28;815;-55
2020/12/09 01:25:14;;;;;;;;;;;;;;;19.70;37.48;101161.59;5099370;28;1013;-47
2020/12/09 01:27:40;;;;;;;;;;;;;;;19.95;37.35;101163.41;5099212;28;827;-49
2020/12/09 01:30:05;;;;;;;;;;;;;;;20.81;35.54;101162.94;5099462;28;1890;-54
2020/12/09 01:32:30;;;;;;;;;;;;;;;20.51;35.87;101162.94;5099367;28;780;-47
2020/12/09 01:34:56;;;;;;;;;;;;;;;20.22;36.69;101162.09;5098971;28;748;-55
2020/12/09 01:37:21;;;;;;;;;;;;;;;19.85;37.27;101166.25;5097829;28;923;-47
2020/12/09 01:39:47;;;;;;;;;;;;;;;19.45;38.26;101144.91;5099058;28;961;-50
2020/12/09 01:42:12;;;;;;;;;;;;;;;20.27;36.38;101139.97;5098975;28;732;-55
2020/12/09 01:44:38;;;;;;;;;;;;;;;20.80;35.40;101137.25;5099227;28;767;-46
2020/12/09 01:47:04;;;;;;;;;;;;;;;21.30;34.61;101125.84;5099099;28;752;-47
2020/12/09 01:49:29;;;;;;;;;;;;;;;20.94;35.28;101122.72;5097578;28;803;-49
2020/12/09 01:51:55;;;;;;;;;;;;;;;20.21;36.51;101122.59;5099230;28;1914;-54
2020/12/09 01:54:20;;;;;;;;;;;;;;;19.79;37.54;101133.16;5098841;28;815;-56
2020/12/09 01:57:01;;;;;;;;;;;;;;;19.48;38.33;101135.25;5098526;28;985;-47
2020/12/09 01:59:26;;;;;;;;;;;;;;;20.39;36.24;101132.13;5099213;28;819;-46
2020/12/09 02:01:52;;;;;;;;;;;;;;;21.06;35.13;101136.94;5098634;28;843;-46
2020/12/09 02:04:18;;;;;;;;;;;;;;;20.50;35.93;101136.41;5079859;28;835;-47
2020/12/09 02:06:44;;;;;;;;;;;;;;;20.14;36.87;101147.78;5098746;28;759;-48
2020/12/09 02:09:09;;;;;;;;;;;;;;;19.66;37.96;101153.09;5098248;28;740;-47
2020/12/09 02:11:35;;;;;;;;;;;;;;;19.67;37.91;101155.56;5098372;28;1921;-48
2020/12/09 02:14:00;;;;;;;;;;;;;;;20.54;35.98;101157.94;5098594;28;824;-56
2020/12/09 02:16:26;;;;;;;;;;;;;;;20.88;35.11;101168.13;5098132;28;744;-54
2020/12/09 02:18:51;;;;;;;;;;;;;;;20.34;36.29;101168.06;5098304;28;968;-49
2020/12/09 02:21:20;;;;;;;;;;;;;;;20.20;36.40;101172.59;5098356;28;740;-56
2020/12/09 02:23:46;;;;;;;;;;;;;;;19.55;38.08;101170.81;5098519;28;783;-48
2020/12/09 02:26:11;;;;;;;;;;;;;;;19.78;37.69;101174.78;5098408;28;1021;-47
2020/12/09 02:28:37;;;;;;;;;;;;;;;20.76;35.69;101176.81;5098225;28;772;-47
2020/12/09 02:31:02;;;;;;;;;;;;;;;20.49;36.00;101165.16;5097894;28;1917;-53
2020/12/09 02:33:27;;;;;;;;;;;;;;;20.37;36.31;101173.03;5098274;28;846;-47
2020/12/09 02:35:53;;;;;;;;;;;;;;;20.05;36.94;101179.91;5098146;28;760;-56
2020/12/09 02:38:18;;;;;;;;;;;;;;;19.62;37.57;101187.88;5097889;28;747;-47
2020/12/09 02:40:44;;;;;;;;;;;;;;;20.11;37.02;101181.50;5097929;28;965;-48
2020/12/09 02:43:09;;;;;;;;;;;;;;;20.71;35.83;101183.22;5097344;28;788;-47
2020/12/09 02:45:35;;;;;;;;;;;;;;;20.32;36.29;101178.59;5097743;28;819;-47
2020/12/09 02:48:00;;;;;;;;;;;;;;;20.16;36.62;101184.22;5098059;28;902;-48
2020/12/09 02:50:25;;;;;;;;;;;;;;;19.77;37.43;101193.31;5097670;28;1988;-48
2020/12/09 02:52:51;;;;;;;;;;;;;;;19.64;37.93;101193.91;5096394;28;820;-49
2020/12/09 02:55:18;;;;;;;;;;;;;;;20.47;36.25;101189.50;5096368;28;1021;-48
2020/12/09 02:57:45;;;;;;;;;;;;;;;20.96;35.06;101189.63;5097585;28;815;-47
2020/12/09 03:00:10;;;;;;;;;;;;;;;20.47;36.09;101203.31;5097930;28;791;-49
2020/12/09 03:02:35;;;;;;;;;;;;;;;20.06;36.74;101198.09;5097715;28;764;-48
2020/12/09 03:05:01;;;;;;;;;;;;;;;19.66;37.42;101206.31;5097497;28;790;-56
2020/12/09 03:07:26;;;;;;;;;;;;;;;19.99;37.22;101203.13;5097588;28;751;-47
2020/12/09 03:09:52;;;;;;;;;;;;;;;20.87;35.29;101185.84;5097366;28;1914;-47
2020/12/09 03:12:17;;;;;;;;;;;;;;;20.70;35.64;101194.56;5097248;28;811;-47
2020/12/09 03:14:43;;;;;;;;;;;;;;;20.22;36.49;101192.47;5097332;28;799;-56
2020/12/09 03:17:08;;;;;;;;;;;;;;;19.88;37.05;101201.53;5096087;28;867;-50
2020/12/09 03:19:34;;;;;;;;;;;;;;;19.36;38.25;101193.50;5097178;28;1039;-48
2020/12/09 03:21:59;;;;;;;;;;;;;;;20.49;35.99;101194.72;5095834;28;887;-54
2020/12/09 03:24:25;;;;;;;;;;;;;;;20.97;35.04;101191.22;5097281;28;815;-49
2020/12/09 03:26:50;;;;;;;;;;;;;;;20.43;36.06;101191.19;5097277;28;988;-56
2020/12/09 03:29:15;;;;;;;;;;;;;;;20.28;36.47;101199.59;5097029;28;855;-47
2020/12/09 03:31:41;;;;;;;;;;;;;;;19.58;37.68;101186.78;5096898;28;1974;-47
2020/12/09 03:34:06;;;;;;;;;;;;;;;19.71;37.63;101194.41;5097229;28;732;-56
2020/12/09 03:36:32;;;;;;;;;;;;;;;20.77;35.62;101186.75;5097228;28;815;-52
2020/12/09 03:38:57;;;;;;;;;;;;;;;20.50;35.86;101183.38;5096934;28;791;-46
2020/12/09 03:41:23;;;;;;;;;;;;;;;20.33;36.34;101185.75;5096808;28;1020;-47
2020/12/09 03:43:48;;;;;;;;;;;;;;;19.83;37.34;101178.38;5096624;28;874;-47
2020/12/09 03:46:13;;;;;;;;;;;;;;;19.64;37.91;101180.97;5096861;28;771;-46
2020/12/09 03:48:39;;;;;;;;;;;;;;;20.55;36.14;101171.44;5096976;28;779;-55
2020/12/09 03:51:04;;;;;;;;;;;;;;;20.98;35.18;101174.34;5096499;28;1979;-52
2020/12/09 03:53:32;;;;;;;;;;;;;;;20.42;36.21;101161.91;5096826;28;835;-48
2020/12/09 03:55:58;;;;;;;;;;;;;;;20.12;36.74;101165.78;5095631;28;968;-47
2020/12/09 03:58:23;;;;;;;;;;;;;;;19.62;37.66;101174.06;5096474;28;744;-50
2020/12/09 04:00:49;;;;;;;;;;;;;;;19.81;37.60;101175.09;5097013;28;744;-48
2020/12/09 04:03:14;;;;;;;;;;;;;;;20.75;35.50;101169.63;5096728;28;803;-48
2020/12/09 04:05:40;;;;;;;;;;;;;;;20.14;36.53;101171.81;5096283;28;898;-49
2020/12/09 04:08:05;;;;;;;;;;;;;;;20.24;36.75;101171.72;5096770;28;751;-47
2020/12/09 04:10:30;;;;;;;;;;;;;;;19.72;37.51;101179.53;5096690;28;1985;-48
2020/12/09 04:12:56;;;;;;;;;;;;;;;20.00;37.29;101177.16;5096357;28;740;-50
2020/12/09 04:15:21;;;;;;;;;;;;;;;20.68;35.73;101175.53;5096457;28;799;-49
2020/12/09 04:17:47;;;;;;;;;;;;;;;20.18;36.72;101183.94;5096493;28;1082;-55
2020/12/09 04:20:12;;;;;;;;;;;;;;;20.09;36.92;101178.22;5096340;28;854;-49
2020/12/09 04:22:38;;;;;;;;;;;;;;;19.71;37.48;101185.34;5096623;28;787;-56
2020/12/09 04:25:03;;;;;;;;;;;;;;;19.64;37.70;101180.97;5096647;28;961;-56
2020/12/09 04:27:29;;;;;;;;;;;;;;;20.46;36.03;101174.03;5096552;28;829;-52
2020/12/09 04:29:54;;;;;;;;;;;;;;;20.77;35.72;101179.28;5096229;28;1914;-57
2020/12/09 04:32:20;;;;;;;;;;;;;;;20.28;36.54;101183.84;5096382;28;890;-57
2020/12/09 04:34:45;;;;;;;;;;;;;;;19.96;36.87;101187.97;5096331;28;819;-50
2020/12/09 04:37:11;;;;;;;;;;;;;;;19.52;38.00;101197.03;5094680;28;904;-49
2020/12/09 04:39:37;;;;;;;;;;;;;;;19.62;38.01;101193.38;5096321;28;838;-54
2020/12/09 04:42:02;;;;;;;;;;;;;;;20.44;36.36;101203.88;5095981;28;949;-56
2020/12/09 04:44:28;;;;;;;;;;;;;;;20.52;35.99;101211.56;5096153;28;744;-60
2020/12/09 04:46:53;;;;;;;;;;;;;;;20.20;36.78;101214.03;5094700;28;1264;-55
2020/12/09 04:49:22;;;;;;;;;;;;;;;20.12;36.87;101221.81;5096343;28;896;-48
2020/12/09 04:51:47;;;;;;;;;;;;;;;19.36;38.18;101215.56;5095991;28;1906;-57
2020/12/09 04:54:13;;;;;;;;;;;;;;;20.01;37.14;101223.00;5096230;28;810;-49
2020/12/09 04:56:39;;;;;;;;;;;;;;;20.59;36.09;101219.47;5094765;28;962;-59
2020/12/09 04:59:13;;;;;;;;;;;;;;;20.20;36.64;101225.88;5095960;28;775;-58
2020/12/09 05:01:38;;;;;;;;;;;;;;;19.93;37.13;101216.13;5096000;28;787;-48
2020/12/09 05:04:04;;;;;;;;;;;;;;;19.41;38.10;101220.25;5078377;28;771;-47
2020/12/09 05:06:29;;;;;;;;;;;;;;;20.37;36.38;101214.44;5095817;28;751;-49
2020/12/09 05:08:56;;;;;;;;;;;;;;;20.95;35.09;101210.06;5100190;28;814;-50
2020/12/09 05:11:24;;;;;;;;;;;;;;;20.23;36.42;101214.28;5099418;28;1917;-47
2020/12/09 05:13:51;;;;;;;;;;;;;;;20.11;36.76;101216.56;5099961;28;739;-57
2020/12/09 05:16:16;;;;;;;;;;;;;;;19.48;38.13;101210.53;5099982;28;759;-47
2020/12/09 05:18:42;;;;;;;;;;;;;;;19.72;37.75;101204.34;5098403;28;1031;-49
2020/12/09 05:21:11;;;;;;;;;;;;;;;20.53;35.84;101206.84;5099563;28;803;-52
2020/12/09 05:23:47;;;;;;;;;;;;;;;20.19;36.64;101193.88;5099896;28;767;-50
2020/12/09 05:26:17;;;;;;;;;;;;;;;20.07;36.97;101185.94;5099294;28;965;-53
2020/12/09 05:28:42;;;;;;;;;;;;;;;19.62;37.58;101191.44;5099410;28;815;-58
2020/12/09 05:31:16;;;;;;;;;;;;;;;20.33;36.14;101183.81;5099178;28;1959;-53
2020/12/09 05:33:42;;;;;;;;;;;;;;;20.51;35.14;101193.31;5097971;28;863;-57
2020/12/09 05:36:07;;;;;;;;;;;;;;;20.04;35.68;101194.81;5099532;28;859;-52
2020/12/09 05:38:33;;;;;;;;;;;;;;;19.75;35.85;101197.44;5099250;28;799;-56
2020/12/09 05:40:58;;;;;;;;;;;;;;;19.35;36.90;101196.53;5099277;28;969;-47
2020/12/09 05:43:23;;;;;;;;;;;;;;;20.28;35.16;101188.56;5099079;28;847;-52
2020/12/09 05:45:49;;;;;;;;;;;;;;;20.91;34.18;101190.47;5099091;28;775;-52
2020/12/09 05:48:15;;;;;;;;;;;;;;;20.24;35.49;101190.25;5099209;28;812;-54
2020/12/09 05:50:58;;;;;;;;;;;;;;;19.93;35.94;101188.53;5098841;28;1973;-52
2020/12/09 05:53:27;;;;;;;;;;;;;;;19.40;36.80;101197.34;5098993;28;807;-52
2020/12/09 05:55:56;;;;;;;;;;;;;;;19.35;36.62;101194.63;5099203;28;1001;-57
2020/12/09 05:58:22;;;;;;;;;;;;;;;20.40;34.50;101197.28;5098662;28;732;-46
2020/12/09 06:01:03;;;;;;;;;;;;;;;20.99;33.46;101202.84;5098966;28;779;-57
2020/12/09 06:03:29;;;;;;;;;;;;;;;20.27;34.90;101198.78;5098946;28;951;-57
2020/12/09 06:06:11;;;;;;;;;;;;;;;20.41;34.78;101198.09;5098408;28;748;-56
2020/12/09 06:08:40;;;;;;;;;;;;;;;19.67;36.24;101207.16;5097538;28;812;-55
2020/12/09 06:11:05;;;;;;;;;;;;;;;20.30;35.29;101213.94;5098427;28;1902;-48
2020/12/09 06:13:34;;;;;;;;;;;;;;;20.76;34.36;101204.44;5098915;28;819;-53
2020/12/09 06:16:00;;;;;;;;;;;;;;;20.40;35.00;101213.03;5079841;28;914;-45
2020/12/09 06:18:25;;;;;;;;;;;;;;;19.96;35.90;101214.72;5095933;28;1011;-56
2020/12/09 06:20:51;;;;;;;;;;;;;;;19.75;36.57;101205.72;5096920;28;775;-56
2020/12/09 06:23:16;;;;;;;;;;;;;;;20.65;34.66;101200.91;5098857;28;804;-47
2020/12/09 06:25:42;;;;;;;;;;;;;;;20.37;35.25;101203.41;5098434;28;957;-56
2020/12/09 06:28:11;;;;;;;;;;;;;;;20.24;35.50;101196.56;5098056;28;794;-46
2020/12/09 06:30:36;;;;;;;;;;;;;;;20.00;35.98;101204.78;5097102;28;1972;-52
2020/12/09 06:33:02;;;;;;;;;;;;;;;20.10;36.04;101209.41;5098322;28;783;-55
2020/12/09 06:35:27;;;;;;;;;;;;;;;20.76;34.81;101205.28;5097902;28;787;-47
2020/12/09 06:38:08;;;;;;;;;;;;;;;20.23;35.74;101217.03;5098246;28;843;-53
2020/12/09 06:40:34;;;;;;;;;;;;;;;20.22;35.59;101220.09;5097845;28;1073;-49
2020/12/09 06:43:08;;;;;;;;;;;;;;;19.86;36.50;101223.09;5093466;28;1188;-56
2020/12/09 06:45:46;;;;;;;;;;;;;;;19.73;36.74;101227.28;5098025;28;874;-53
2020/12/09 06:48:12;;;;;;;;;;;;;;;20.64;35.00;101238.78;5098091;28;795;-54
2020/12/09 06:50:37;;;;;;;;;;;;;;;20.21;35.68;101244.09;5097650;28;1967;-51
2020/12/09 06:53:12;;;;;;;;;;;;;;;20.21;35.95;101259.84;5096544;28;899;-60
2020/12/09 06:55:38;;;;;;;;;;;;;;;19.88;36.43;101265.00;5097440;28;1024;-60
2020/12/09 06:58:21;;;;;;;;;;;;;;;19.63;37.11;101278.63;5094863;28;1149;-61
2020/12/09 07:01:05;;;;;;;;;;;;;;;20.46;35.57;101276.22;5096589;28;851;-46
2020/12/09 07:03:31;;;;;;;;;;;;;;;20.29;35.84;101271.13;5095851;28;976;-48
2020/12/09 07:05:56;;;;;;;;;;;;;;;20.23;35.78;101277.78;5097934;28;851;-47
2020/12/09 07:08:22;;;;;;;;;;;;;;;19.85;36.69;101271.09;5097166;28;886;-46
2020/12/09 07:10:47;;;;;;;;;;;;;;;20.02;36.26;101266.06;5096018;28;1909;-46
2020/12/09 07:13:13;;;;;;;;;;;;;;;20.61;35.04;101266.19;5097612;28;792;-56
2020/12/09 07:15:45;;;;;;;;;;;;;;;20.20;35.98;101272.00;5097334;28;823;-57
2020/12/09 07:18:10;;;;;;;;;;;;;;;20.09;36.19;101263.81;5097267;28;1047;-57
2020/12/09 07:20:36;;;;;;;;;;;;;;;19.73;36.71;101276.94;5097464;28;973;-47
2020/12/09 07:23:02;;;;;;;;;;;;;;;19.65;37.06;101275.56;5097177;28;771;-48
2020/12/09 07:25:27;;;;;;;;;;;;;;;20.50;35.48;101271.78;5096519;28;823;-45
2020/12/09 07:27:54;;;;;;;;;;;;;;;20.38;35.69;101263.03;5096545;28;850;-57
2020/12/09 07:30:20;;;;;;;;;;;;;;;20.13;36.36;101256.59;5096762;28;1914;-45
2020/12/09 07:32:46;;;;;;;;;;;;;;;19.96;36.58;101264.41;5097056;28;823;-46
2020/12/09 07:35:12;;;;;;;;;;;;;;;19.60;37.38;101267.31;5096968;28;775;-48
2020/12/09 07:37:39;;;;;;;;;;;;;;;20.48;35.43;101267.66;5097277;28;787;-53
2020/12/09 07:40:08;;;;;;;;;;;;;;;20.39;35.73;101283.22;5096821;28;1024;-46
2020/12/09 07:42:34;;;;;;;;;;;;;;;20.09;36.43;101277.59;5096771;28;803;-50
2020/12/09 07:44:59;;;;;;;;;;;;;;;19.66;37.16;101282.75;5096905;28;835;-49
2020/12/09 07:47:25;;;;;;;;;;;;;;;19.49;37.42;101283.91;5097006;28;882;-48
2020/12/09 07:49:52;;;;;;;;;;;;;;;20.40;35.58;101288.44;5096408;28;1909;-57
2020/12/09 07:52:21;;;;;;;;;;;;;;;20.89;34.65;101278.41;5096875;28;776;-47
2020/12/09 07:54:46;;;;;;;;;;;;;;;20.40;35.55;101282.91;5096345;28;827;-56
2020/12/09 07:57:12;;;;;;;;;;;;;;;20.18;36.09;101277.81;5096338;28;795;-56
2020/12/09 07:59:37;;;;;;;;;;;;;;;19.75;37.00;101278.28;5096577;28;862;-46
2020/12/09 08:02:21;;;;;;;;;;;;;;;20.03;36.45;101281.50;5096754;28;776;-51
2020/12/09 08:04:47;;;;;;;;;;;;;;;20.79;35.10;101275.72;5095141;28;807;-49
2020/12/09 08:07:16;;;;;;;;;;;;;;;21.22;34.03;101277.81;5096621;28;756;-58
2020/12/09 08:09:42;;;;;;;;;;;;;;;20.65;35.25;101270.00;5096937;28;790;-54
2020/12/09 08:12:07;;;;;;;;;;;;;;;20.23;35.99;101272.28;5096023;28;1918;-47
2020/12/09 08:14:32;;;;;;;;;;;;;;;19.79;37.02;101265.59;5096467;28;780;-55
2020/12/09 08:16:58;;;;;;;;;;;;;;;19.71;37.16;101268.91;5096580;28;767;-59
2020/12/09 08:19:23;;;;;;;;;;;;;;;20.12;36.42;101268.75;5096016;28;1158;-57
2020/12/09 08:22:03;;;;;;;;;;;;;;;20.72;35.32;101276.06;5096583;28;920;-53
2020/12/09 08:24:28;;;;;;;;;;;;;;;20.17;36.42;101278.91;5096366;28;799;-54
2020/12/09 08:26:55;;;;;;;;;;;;;;;20.13;36.43;101281.44;5096145;28;1016;-50
2020/12/09 08:29:20;;;;;;;;;;;;;;;19.65;37.24;101281.09;5095090;28;875;-56
2020/12/09 08:31:46;;;;;;;;;;;;;;;20.07;36.47;101277.03;5096195;28;1913;-49
2020/12/09 08:34:14;;;;;;;;;;;;;;;20.79;35.09;101262.75;5096156;28;811;-57
2020/12/09 08:36:40;;;;;;;;;;;;;;;20.09;36.37;101263.81;5096668;28;823;-52
2020/12/09 08:39:06;;;;;;;;;;;;;;;20.17;36.38;101268.72;5096285;28;743;-46
2020/12/09 08:41:32;;;;;;;;;;;;;;;19.97;36.58;101266.06;5097275;28;965;-45
2020/12/09 08:43:58;;;;;;;;;;;;;;;20.17;36.32;101267.88;5100369;28;834;-47
2020/12/09 08:46:24;;;;;;;;;;;;;;;20.85;34.92;101264.34;5100493;28;787;-48
2020/12/09 08:48:49;;;;;;;;;;;;;;;20.29;35.90;101271.13;5100027;28;803;-47
2020/12/09 08:51:15;;;;;;;;;;;;;;;20.24;36.11;101265.63;5100155;28;1913;-46
2020/12/09 08:53:40;;;;;;;;;;;;;;;19.73;36.92;101261.19;5100142;28;807;-45
2020/12/09 08:56:06;;;;;;;;;;;;;;;20.01;36.47;101261.63;5099737;28;985;-47
2020/12/09 08:58:32;;;;;;;;;;;;;;;20.79;35.07;101243.41;5100361;28;804;-48
2020/12/09 09:00:59;;;;;;;;;;;;;;;20.50;35.52;101229.53;5100089;28;760;-46
2020/12/09 09:03:26;;;;;;;;;;;;;;;20.25;35.93;101247.13;5099859;28;759;-47
2020/12/09 09:05:52;;;;;;;;;;;;;;;19.86;36.69;101248.75;5100201;28;779;-46
2020/12/09 09:08:17;;;;;;;;;;;;;;;20.05;36.50;101262.72;5099730;28;755;-51
2020/12/09 09:10:43;;;;;;;;;;;;;;;20.82;35.09;101264.91;5099252;28;1980;-51
2020/12/09 09:13:09;;;;;;;;;;;;;;;20.32;36.06;101264.19;5099848;28;834;-45
2020/12/09 09:15:34;;;;;;;;;;;;;;;20.27;35.95;101262.31;5099539;28;811;-44
2020/12/09 09:18:00;;;;;;;;;;;;;;;19.82;36.98;101253.16;5099538;28;1106;-45
2020/12/09 09:20:26;;;;;;;;;;;;;;;20.08;36.57;101244.75;5099673;28;807;-45
2020/12/09 09:22:51;;;;;;;;;;;;;;;20.77;35.29;101237.31;5099369;28;787;-45
2020/12/09 09:25:17;;;;;;;;;;;;;;;20.33;36.02;101243.75;5097911;28;1014;-45
2020/12/09 09:27:42;;;;;;;;;;;;;;;20.10;36.43;101235.06;5099561;28;859;-45
2020/12/09 09:30:08;;;;;;;;;;;;;;;19.67;37.04;101227.28;5099252;28;1979;-47
2020/12/09 09:32:33;;;;;;;;;;;;;;;20.27;36.27;101233.84;5099201;28;736;-56
2020/12/09 09:34:59;;;;;;;;;;;;;;;20.63;35.35;101217.78;5099491;28;760;-47
2020/12/09 09:37:24;;;;;;;;;;;;;;;20.20;36.34;101225.88;5099282;28;783;-45
2020/12/09 09:39:50;;;;;;;;;;;;;;;20.09;36.44;101214.09;5099590;28;958;-46
2020/12/09 09:42:17;;;;;;;;;;;;;;;19.59;37.38;101210.50;5097542;28;820;-57
2020/12/09 09:44:43;;;;;;;;;;;;;;;20.08;36.80;101206.13;5098177;28;956;-45
2020/12/09 09:47:08;;;;;;;;;;;;;;;20.69;35.45;101199.25;5097789;28;849;-45
2020/12/09 09:49:34;;;;;;;;;;;;;;;20.21;36.07;101197.16;5099240;28;759;-49
2020/12/09 09:51:59;;;;;;;;;;;;;;;20.10;36.41;101199.16;5098649;28;1902;-45
2020/12/09 09:54:25;;;;;;;;;;;;;;;19.81;37.04;101197.16;5096245;28;945;-45
2020/12/09 09:56:50;;;;;;;;;;;;;;;20.16;36.36;101203.56;5098932;28;993;-45
2020/12/09 09:59:16;;;;;;;;;;;;;;;20.80;35.28;101189.78;5098906;28;795;-45
2020/12/09 10:01:41;;;;;;;;;;;;;;;20.32;35.91;101193.19;5098849;28;870;-57
2020/12/09 10:04:08;;;;;;;;;;;;;;;20.22;36.46;101192.47;5098762;28;732;-45
2020/12/09 10:06:34;;;;;;;;;;;;;;;19.61;37.52;101188.97;5098777;28;847;-45
2020/12/09 10:08:59;;;;;;;;;;;;;;;19.81;37.15;101194.41;5098881;28;843;-51
2020/12/09 10:11:25;;;;;;;;;;;;;;;20.70;35.39;101189.03;5083469;28;1973;-45
2020/12/09 10:13:51;;;;;;;;;;;;;;;20.77;35.37;101184.81;5078548;28;760;-45
2020/12/09 10:16:25;;;;;;;;;;;;;;;20.37;36.25;101189.59;5078312;28;862;-50
2020/12/09 10:18:51;;;;;;;;;;;;;;;20.06;36.58;101181.53;5078114;28;1155;-44
2020/12/09 10:21:23;;;;;;;;;;;;;;;19.70;37.26;101173.47;5078388;28;760;-51
2020/12/09 10:23:48;;;;;;;;;;;;;;;20.05;36.96;101168.00;5076653;28;971;-47
2020/12/09 10:26:14;;;;;;;;;;;;;;;20.77;35.33;101179.28;5090841;28;1021;-50
2020/12/09 10:28:39;;;;;;;;;;;;;;;20.18;36.64;101179.22;5098500;28;819;-48
2020/12/09 10:31:05;;;;;;;;;;;;;;;20.36;36.56;101179.66;5098101;28;1918;-50
2020/12/09 10:33:30;;;;;;;;;;;;;;;19.82;37.36;101181.44;5096560;28;941;-56
2020/12/09 10:35:55;;;;;;;;;;;;;;;19.60;38.11;101176.28;5097614;28;862;-48
2020/12/09 10:38:21;;;;;;;;;;;;;;;20.55;36.02;101170.63;5097977;28;953;-49
2020/12/09 10:40:46;;;;;;;;;;;;;;;20.51;35.93;101168.47;5097725;28;751;-47
2020/12/09 10:43:12;;;;;;;;;;;;;;;20.11;36.76;101173.22;5098110;28;759;-46
2020/12/09 10:45:38;;;;;;;;;;;;;;;20.02;36.88;101172.19;5097817;28;842;-45
2020/12/09 10:48:03;;;;;;;;;;;;;;;19.49;38.14;101167.25;5091247;28;1374;-46
2020/12/09 10:50:29;;;;;;;;;;;;;;;20.26;36.77;101163.16;5075903;28;1978;-46
2020/12/09 10:52:55;;;;;;;;;;;;;;;20.74;35.57;101168.00;5077291;28;760;-47
2020/12/09 10:55:23;;;;;;;;;;;;;;;20.32;36.28;101173.06;5082533;28;990;-47
2020/12/09 10:57:48;;;;;;;;;;;;;;;20.18;36.63;101168.19;5089733;28;834;-45
2020/12/09 11:00:14;;;;;;;;;;;;;;;19.73;37.34;101175.66;5077232;28;844;-53
2020/12/09 11:02:39;;;;;;;;;;;;;;;19.80;37.34;101167.91;5079564;28;871;-46
2020/12/09 11:05:04;;;;;;;;;;;;;;;20.72;35.58;101167.47;5096040;28;1462;-47
2020/12/09 11:07:30;;;;;;;;;;;;;;;20.25;36.31;101173.38;5094772;28;752;-55
2020/12/09 11:09:55;;;;;;;;;;;;;;;20.24;36.70;101170.91;5097171;28;1914;-56
2020/12/09 11:12:21;;;;;;;;;;;;;;;19.80;37.26;101167.09;5097533;28;806;-46
2020/12/09 11:14:48;;;;;;;;;;;;;;;20.03;36.85;101168.31;5096209;28;754;-57
2020/12/09 11:17:14;;;;;;;;;;;;;;;20.73;35.71;101161.63;5097134;28;1059;-58
2020/12/09 11:19:39;;;;;;;;;;;;;;;20.42;36.16;101172.97;5097373;28;547;-57
2020/12/09 11:22:05;;;;;;;;;;;;;;;20.48;36.19;101166.28;5097429;28;775;-59
2020/12/09 11:24:30;;;;;;;;;;;;;;;19.92;36.93;101155.69;5097099;28;763;-53
2020/12/09 11:26:56;;;;;;;;;;;;;;;19.54;37.87;101150.66;5096410;28;1221;-46
2020/12/09 11:29:21;;;;;;;;;;;;;;;20.52;35.99;101145.25;5084054;28;781;-47
2020/12/09 11:31:47;;;;;;;;;;;;;;;20.53;36.02;101137.78;5090586;28;1914;-51
2020/12/09 11:34:12;;;;;;;;;;;;;;;20.38;36.46;101144.28;5096037;28;736;-51
2020/12/09 11:36:38;;;;;;;;;;;;;;;20.01;36.80;101126.38;5095417;28;903;-51
2020/12/09 11:39:03;;;;;;;;;;;;;;;19.98;37.39;101119.50;5096764;28;819;-56
2020/12/09 11:41:29;;;;;;;;;;;;;;;20.79;35.68;101119.03;5096983;28;993;-52
2020/12/09 11:43:55;;;;;;;;;;;;;;;20.44;36.14;101115.50;5095271;28;900;-51
2020/12/09 11:46:24;;;;;;;;;;;;;;;20.23;36.72;101103.00;5095430;28;815;-48
2020/12/09 11:48:49;;;;;;;;;;;;;;;19.88;37.28;101096.66;5091832;28;1553;-49
2020/12/09 11:51:15;;;;;;;;;;;;;;;19.25;38.76;101090.72;5093161;28;1973;-51
2020/12/09 11:53:41;;;;;;;;;;;;;;;20.33;36.63;101091.88;5076467;28;740;-49
2020/12/09 11:56:06;;;;;;;;;;;;;;;20.49;36.07;101085.03;5088140;28;937;-47
2020/12/09 11:58:32;;;;;;;;;;;;;;;20.14;36.69;101089.00;5086550;28;855;-51
2020/12/09 12:00:57;;;;;;;;;;;;;;;20.05;36.88;101086.03;5076469;28;816;-48
2020/12/09 12:03:23;;;;;;;;;;;;;;;19.57;37.99;101083.91;5075260;28;1425;-56
2020/12/09 12:05:52;;;;;;;;;;;;;;;20.24;36.65;101077.03;5076344;28;792;-55
2020/12/09 12:08:17;;;;;;;;;;;;;;;20.87;35.51;101078.03;5076352;28;759;-49
2020/12/09 12:10:43;;;;;;;;;;;;;;;20.38;36.37;101066.94;5084617;28;1984;-57
2020/12/09 12:13:08;;;;;;;;;;;;;;;20.34;36.61;101072.25;5081319;28;953;-50
2020/12/09 12:15:34;;;;;;;;;;;;;;;19.86;37.33;101085.91;5075772;28;826;-51
2020/12/09 12:17:59;;;;;;;;;;;;;;;19.95;37.48;101088.88;5076297;28;1147;-56
2020/12/09 12:20:25;;;;;;;;;;;;;;;20.76;35.82;101089.22;5076279;28;819;-52
2020/12/09 12:22:50;;;;;;;;;;;;;;;20.40;36.47;101092.34;5074982;28;582;-56
2020/12/09 12:25:16;;;;;;;;;;;;;;;20.39;36.42;101096.22;5079488;28;966;-55
2020/12/09 12:27:41;;;;;;;;;;;;;;;19.84;37.53;101090.91;5096318;28;1532;-53
2020/12/09 12:30:07;;;;;;;;;;;;;;;19.80;37.88;101087.91;5076895;28;1906;-51
2020/12/09 12:32:32;;;;;;;;;;;;;;;20.70;35.97;101087.63;5088194;28;736;-56
2020/12/09 12:34:57;;;;;;;;;;;;;;;20.51;36.26;101093.88;5096386;28;743;-56
2020/12/09 12:37:23;;;;;;;;;;;;;;;20.38;36.59;101091.78;5087650;28;752;-57
2020/12/09 12:39:48;;;;;;;;;;;;;;;19.93;37.23;101091.13;5076773;28;953;-51
2020/12/09 12:42:16;;;;;;;;;;;;;;;19.39;38.63;101099.19;5084493;28;883;-56
2020/12/09 12:44:42;;;;;;;;;;;;;;;20.45;36.61;101095.03;5076008;28;807;-52
2020/12/09 12:47:07;;;;;;;;;;;;;;;20.49;36.32;101098.84;5074448;28;882;-50
2020/12/09 12:49:32;;;;;;;;;;;;;;;20.09;37.12;101087.13;5076136;28;743;-56